createdAt,value
2023-04-21T00:00:40.648Z,5.99
2023-04-21T00:03:44.256Z,5.99
2023-04-21T00:06:46.898Z,6.03
2023-04-21T00:09:51.148Z,6.05
2023-04-21T00:12:53.828Z,6.05
2023-04-21T00:15:56.468Z,6.04
2023-04-21T00:18:59.278Z,6.10
2023-04-21T00:22:01.772Z,6.06
2023-04-21T00:25:06.879Z,6.14
2023-04-21T00:28:09.458Z,6.13
2023-04-21T00:31:12.053Z,6.14
2023-04-21T00:34:14.670Z,6.16
2023-04-21T00:37:17.269Z,6.30
2023-04-21T00:40:21.476Z,6.25
2023-04-21T00:43:25.735Z,6.14
2023-04-21T00:46:28.380Z,6.10
2023-04-21T00:49:30.985Z,6.10
2023-04-21T00:52:34.540Z,6.13
2023-04-21T00:55:38.392Z,6.10
2023-04-21T00:58:41.131Z,6.06
2023-04-21T01:01:44.430Z,6.01
2023-04-21T01:04:47.067Z,6.02
2023-04-21T01:07:50.342Z,5.96
2023-04-21T01:10:54.252Z,5.82
2023-04-21T01:13:56.652Z,5.81
2023-04-21T01:16:59.473Z,5.78
2023-04-21T01:20:03.266Z,5.74
2023-04-21T01:23:07.175Z,5.71
2023-04-21T01:26:09.832Z,5.66
2023-04-21T01:29:12.347Z,5.64
2023-04-21T01:32:16.970Z,5.66
2023-04-21T01:35:19.674Z,5.57
2023-04-21T01:38:23.824Z,5.52
2023-04-21T01:41:26.457Z,5.56
2023-04-21T01:44:28.985Z,5.53
2023-04-21T01:47:31.623Z,5.48
2023-04-21T01:50:34.193Z,5.62
2023-04-21T01:53:38.059Z,5.69
2023-04-21T01:56:40.558Z,5.51
2023-04-21T01:59:43.175Z,5.27
2023-04-21T02:02:45.767Z,5.13
2023-04-21T02:05:48.385Z,5.15
2023-04-21T02:08:52.341Z,5.22
2023-04-21T02:11:57.072Z,5.20
2023-04-21T02:14:59.848Z,5.24
2023-04-21T02:18:02.481Z,5.19
2023-04-21T02:21:05.516Z,5.15
2023-04-21T02:24:09.521Z,5.15
2023-04-21T02:27:12.030Z,5.13
2023-04-21T02:30:14.787Z,5.04
2023-04-21T02:33:17.392Z,5.01
2023-04-21T02:36:19.931Z,5.02
2023-04-21T02:39:23.784Z,4.95
2023-04-21T02:42:26.294Z,4.80
2023-04-21T02:45:28.703Z,4.77
2023-04-21T02:48:31.363Z,4.76
2023-04-21T02:51:33.826Z,4.72
2023-04-21T02:54:37.718Z,4.80
2023-04-21T02:57:40.091Z,4.77
2023-04-21T03:00:42.646Z,4.87
2023-04-21T03:03:45.354Z,4.77
2023-04-21T03:06:48.024Z,4.78
2023-04-21T03:09:51.887Z,4.74
2023-04-21T03:12:55.980Z,4.75
2023-04-21T03:15:58.526Z,4.88
2023-04-21T03:19:01.167Z,4.90
2023-04-21T03:22:04.097Z,4.84
2023-04-21T03:25:08.617Z,4.82
2023-04-21T03:28:11.283Z,4.88
2023-04-21T03:31:13.773Z,4.84
2023-04-21T03:34:16.445Z,4.90
2023-04-21T03:37:18.978Z,4.94
2023-04-21T03:40:23.195Z,4.96
2023-04-21T03:43:25.683Z,4.98
2023-04-21T03:46:28.414Z,5.07
2023-04-21T03:49:31.676Z,5.09
2023-04-21T03:52:34.364Z,5.12
2023-04-21T03:55:38.424Z,5.11
2023-04-21T03:58:41.030Z,5.09
2023-04-21T04:01:43.739Z,5.05
2023-04-21T04:04:46.267Z,5.03
2023-04-21T04:07:48.807Z,5.20
2023-04-21T04:10:52.632Z,5.24
2023-04-21T04:13:54.969Z,5.30
2023-04-21T04:16:57.517Z,5.37
2023-04-21T04:20:00.151Z,5.42
2023-04-21T04:23:02.636Z,5.42
2023-04-21T04:26:06.640Z,5.46
2023-04-21T04:29:10.598Z,5.46
2023-04-21T04:32:13.568Z,5.40
2023-04-21T04:35:16.386Z,5.50
2023-04-21T04:38:19.308Z,5.57
2023-04-21T04:41:24.149Z,5.62
2023-04-21T04:44:26.805Z,5.66
2023-04-21T04:47:29.664Z,5.75
2023-04-21T04:50:32.437Z,5.82
2023-04-21T04:53:34.933Z,5.89
2023-04-21T04:56:39.341Z,6.01
2023-04-21T04:59:41.841Z,6.08
2023-04-21T05:02:44.734Z,6.15
2023-04-21T05:05:47.513Z,6.27
2023-04-21T05:08:49.995Z,6.40
2023-04-21T05:11:53.862Z,6.51
2023-04-21T05:14:56.478Z,6.64
2023-04-21T05:17:59.024Z,6.74
2023-04-21T05:21:01.600Z,6.85
2023-04-21T05:24:04.218Z,7.06
2023-04-21T05:27:08.076Z,7.14
2023-04-21T05:30:11.613Z,7.13
2023-04-21T05:33:14.339Z,7.10
2023-04-21T05:36:17.077Z,6.93
2023-04-21T05:39:19.791Z,6.95
2023-04-21T05:42:23.720Z,6.94
2023-04-21T05:45:26.366Z,7.02
2023-04-21T05:48:29.660Z,7.09
2023-04-21T05:51:32.625Z,7.12
2023-04-21T05:54:35.189Z,7.28
2023-04-21T05:57:39.107Z,7.32
2023-04-21T06:00:41.602Z,7.32
2023-04-21T06:03:44.405Z,7.42
2023-04-21T06:06:46.949Z,7.68
2023-04-21T06:09:51.855Z,8.05
2023-04-21T06:12:55.755Z,8.37
2023-04-21T06:15:58.537Z,8.70
2023-04-21T06:19:01.369Z,9.02
2023-04-21T06:22:04.110Z,9.24
2023-04-21T06:25:07.414Z,9.28
2023-04-21T06:28:11.232Z,9.38
2023-04-21T06:31:15.573Z,9.73
2023-04-21T06:34:20.194Z,10.13
2023-04-21T06:37:22.934Z,10.80
2023-04-21T06:40:25.526Z,10.90
2023-04-21T06:43:29.537Z,10.77
2023-04-21T06:46:32.145Z,10.41
2023-04-21T06:49:35.045Z,9.92
2023-04-21T06:52:37.565Z,9.76
2023-04-21T06:55:40.155Z,9.60
2023-04-21T06:58:44.012Z,9.51
2023-04-21T07:01:48.947Z,9.44
2023-04-21T07:04:51.602Z,9.51
2023-04-21T07:07:56.848Z,9.65
2023-04-21T07:10:59.429Z,9.91
2023-04-21T07:14:03.306Z,9.97
2023-04-21T07:17:06.236Z,9.99
2023-04-21T07:20:10.072Z,9.97
2023-04-21T07:23:12.509Z,10.05
2023-04-21T07:26:15.092Z,10.28
2023-04-21T07:29:19.369Z,10.58
2023-04-21T07:32:22.378Z,11.00
2023-04-21T07:35:25.123Z,11.42
2023-04-21T07:38:27.640Z,11.91
2023-04-21T07:41:30.232Z,12.39
2023-04-21T07:44:34.136Z,12.76
2023-04-21T07:47:36.855Z,13.03
2023-04-21T07:50:39.582Z,13.28
2023-04-21T07:53:42.186Z,13.24
2023-04-21T07:56:44.718Z,13.11
2023-04-21T07:59:48.677Z,13.10
2023-04-21T08:02:51.319Z,12.74
2023-04-21T08:05:54.251Z,12.98
2023-04-21T08:08:56.953Z,13.29
2023-04-21T08:11:59.547Z,13.48
2023-04-21T08:15:05.863Z,13.48
2023-04-21T08:18:09.655Z,13.39
2023-04-21T08:21:12.634Z,13.38
2023-04-21T08:24:15.184Z,13.47
2023-04-21T08:27:17.764Z,13.46
2023-04-21T08:30:21.699Z,13.27
2023-04-21T08:33:24.302Z,12.85
2023-04-21T08:36:29.739Z,12.49
2023-04-21T08:39:32.925Z,12.54
2023-04-21T08:42:36.848Z,12.96
2023-04-21T08:45:41.216Z,12.98
2023-04-21T08:48:43.845Z,13.06
2023-04-21T08:51:47.164Z,13.17
2023-04-21T08:54:52.867Z,13.30
2023-04-21T08:57:55.395Z,13.59
2023-04-21T09:00:59.386Z,13.39
2023-04-21T09:04:17.542Z,13.30
2023-04-21T09:07:32.477Z,13.51
2023-04-21T09:10:35.325Z,13.75
2023-04-21T09:13:38.187Z,13.66
2023-04-21T09:16:44.540Z,14.05
2023-04-21T09:19:47.125Z,14.17
2023-04-21T09:22:51.137Z,14.30
2023-04-21T09:25:55.340Z,14.13
2023-04-21T09:28:57.977Z,14.60
2023-04-21T09:32:02.736Z,14.98
2023-04-21T09:35:06.402Z,15.09
2023-04-21T09:38:11.935Z,15.06
2023-04-21T09:41:18.066Z,15.31
2023-04-21T09:44:21.572Z,15.58
2023-04-21T09:47:28.308Z,15.81
2023-04-21T09:53:40.572Z,15.60
2023-04-21T09:56:44.486Z,15.65
2023-04-21T09:59:47.809Z,15.51
2023-04-21T10:02:52.503Z,15.59
2023-04-21T10:05:55.210Z,15.76
2023-04-21T10:08:58.791Z,15.85
2023-04-21T10:12:02.710Z,15.93
2023-04-21T10:15:06.409Z,15.95
2023-04-21T10:18:15.374Z,16.00
2023-04-21T10:21:21.810Z,16.25
2023-04-21T10:24:24.455Z,16.43
2023-04-21T10:27:34.443Z,16.46
2023-04-21T10:30:37.370Z,16.65
2023-04-21T10:33:42.041Z,16.77
2023-04-21T10:36:50.507Z,16.68
2023-04-21T10:39:54.608Z,16.50
2023-04-21T10:42:57.287Z,16.55
2023-04-21T10:45:59.851Z,16.72
2023-04-21T10:49:11.580Z,16.61
2023-04-21T10:52:16.395Z,17.05
2023-04-21T10:55:19.298Z,17.16
2023-04-21T10:58:24.300Z,17.08
2023-04-21T11:01:26.891Z,17.22
2023-04-21T11:04:32.047Z,17.40
2023-04-21T11:07:34.874Z,17.24
2023-04-21T11:10:53.068Z,17.37
2023-04-21T11:13:55.577Z,17.61
2023-04-21T11:16:58.230Z,17.79
2023-04-21T11:20:04.044Z,17.97
2023-04-21T11:23:06.599Z,18.06
2023-04-21T11:26:09.221Z,18.34
2023-04-21T11:29:12.763Z,17.78
2023-04-21T11:32:16.225Z,18.17
2023-04-21T11:35:20.189Z,18.21
2023-04-21T11:38:23.266Z,18.41
2023-04-21T11:41:26.488Z,18.58
2023-04-21T11:44:33.924Z,18.45
2023-04-21T11:47:37.689Z,18.69
2023-04-21T11:50:41.610Z,18.74
2023-04-21T11:53:44.212Z,18.73
2023-04-21T11:56:48.565Z,19.12
2023-04-21T11:59:51.480Z,19.41
2023-04-21T12:02:58.597Z,19.44
2023-04-21T12:06:02.768Z,19.64
2023-04-21T12:09:05.315Z,19.64
2023-04-21T12:12:08.313Z,18.85
2023-04-21T12:15:12.739Z,19.14
2023-04-21T12:18:15.900Z,19.36
2023-04-21T12:21:19.788Z,19.58
2023-04-21T12:24:22.351Z,19.47
2023-04-21T12:27:25.022Z,19.80
2023-04-21T12:30:27.680Z,19.81
2023-04-21T12:33:30.426Z,20.21
2023-04-21T12:36:36.409Z,20.70
2023-04-21T12:39:39.189Z,20.42
2023-04-21T12:42:42.035Z,21.01
2023-04-21T12:45:44.689Z,21.27
2023-04-21T12:48:48.739Z,21.48
2023-04-21T12:51:52.598Z,28.50
2023-04-21T12:54:55.951Z,34.36
2023-04-21T12:57:58.875Z,37.43
2023-04-21T13:01:01.817Z,38.53
2023-04-21T13:04:04.980Z,40.27
2023-04-21T13:07:09.006Z,38.86
2023-04-21T13:10:12.176Z,40.02
2023-04-21T13:13:14.808Z,38.98
2023-04-21T13:16:17.683Z,40.19
2023-04-21T13:19:20.146Z,38.86
2023-04-21T13:22:24.097Z,39.86
2023-04-21T13:25:26.932Z,39.42
2023-04-21T13:28:29.920Z,38.50
2023-04-21T13:31:32.752Z,39.56
2023-04-21T13:34:35.732Z,39.24
2023-04-21T13:37:40.243Z,40.28
2023-04-21T13:40:42.838Z,41.17
2023-04-21T13:43:45.488Z,40.32
2023-04-21T13:46:48.141Z,43.45
2023-04-21T13:49:51.502Z,42.95
2023-04-21T13:52:55.365Z,40.13
2023-04-21T13:55:59.336Z,36.42
2023-04-21T13:59:01.924Z,41.78
2023-04-21T14:02:04.809Z,41.13
2023-04-21T14:05:07.973Z,38.69
2023-04-21T14:08:12.076Z,41.94
2023-04-21T14:11:14.682Z,43.04
2023-04-21T14:14:27.690Z,44.72
2023-04-21T14:17:39.782Z,45.11
2023-04-21T14:20:42.460Z,46.78
2023-04-21T14:23:46.596Z,45.46
2023-04-21T14:26:49.230Z,44.95
2023-04-21T14:29:51.712Z,46.02
2023-04-21T14:32:54.157Z,45.77
2023-04-21T14:35:57.072Z,44.94
2023-04-21T14:39:01.026Z,44.75
2023-04-21T14:42:03.702Z,46.37
2023-04-21T14:45:07.263Z,44.83
2023-04-21T14:48:11.764Z,45.15
2023-04-21T14:51:14.355Z,46.68
2023-04-21T14:54:18.296Z,48.10
2023-04-21T14:57:22.087Z,46.60
2023-04-21T15:00:25.800Z,46.72
2023-04-21T15:03:28.641Z,47.27
2023-04-21T15:06:31.687Z,45.99
2023-04-21T15:09:37.377Z,42.95
2023-04-21T15:12:41.886Z,42.20
2023-04-21T15:15:44.874Z,43.40
2023-04-21T15:18:47.668Z,45.07
2023-04-21T15:21:50.239Z,43.75
2023-04-21T15:24:54.787Z,39.84
2023-04-21T15:27:57.552Z,33.98
2023-04-21T15:31:00.227Z,30.50
2023-04-21T15:34:03.112Z,31.46
2023-04-21T15:37:05.679Z,34.47
2023-04-21T15:40:10.828Z,38.98
2023-04-21T15:43:13.497Z,43.38
2023-04-21T15:46:16.273Z,44.30
2023-04-21T15:49:18.996Z,43.50
2023-04-21T15:52:21.623Z,42.48
2023-04-21T15:55:27.969Z,40.68
2023-04-21T15:58:30.567Z,40.21
2023-04-21T16:01:33.269Z,40.24
2023-04-21T16:04:36.515Z,41.23
2023-04-21T16:07:39.850Z,41.89
2023-04-21T16:10:43.769Z,39.79
2023-04-21T16:13:46.551Z,35.86
2023-04-21T16:16:49.127Z,34.50
2023-04-21T16:19:51.592Z,32.36
2023-04-21T16:22:54.324Z,34.56
2023-04-21T16:25:58.171Z,34.56
2023-04-21T16:29:00.705Z,29.22
2023-04-21T16:32:03.345Z,29.82
2023-04-21T16:35:08.295Z,31.55
2023-04-21T16:38:11.178Z,33.95
2023-04-21T16:41:17.181Z,30.31
2023-04-21T16:44:20.731Z,28.99
2023-04-21T16:47:23.430Z,27.18
2023-04-21T16:50:26.213Z,25.03
2023-04-21T16:53:28.900Z,23.60
2023-04-21T16:56:33.354Z,23.04
2023-04-21T16:59:36.101Z,22.40
2023-04-21T17:02:38.828Z,21.94
2023-04-21T17:05:41.655Z,21.53
2023-04-21T17:08:44.372Z,20.93
2023-04-21T17:11:48.506Z,20.77
2023-04-21T17:14:51.205Z,20.86
2023-04-21T17:17:54.087Z,20.74
2023-04-21T17:20:56.734Z,20.76
2023-04-21T17:23:59.520Z,20.67
2023-04-21T17:27:03.650Z,20.36
2023-04-21T17:30:07.770Z,19.02
2023-04-21T17:36:17.810Z,17.59
2023-04-21T17:39:20.478Z,17.41
2023-04-21T17:42:24.503Z,17.36
2023-04-21T17:45:27.147Z,17.43
2023-04-21T17:48:29.887Z,17.60
2023-04-21T17:51:32.625Z,17.63
2023-04-21T17:54:36.237Z,17.64
2023-04-21T17:57:40.561Z,17.63
2023-04-21T18:00:43.347Z,17.75
2023-04-21T18:03:46.876Z,17.77
2023-04-21T18:06:51.105Z,17.72
2023-04-21T18:09:53.705Z,17.61
2023-04-21T18:12:57.636Z,17.52
2023-04-21T18:16:00.646Z,17.33
2023-04-21T18:19:03.302Z,17.09
2023-04-21T18:22:06.033Z,16.83
2023-04-21T18:25:09.443Z,16.61
2023-04-21T18:28:14.238Z,16.41
2023-04-21T18:31:16.945Z,16.25
2023-04-21T18:34:19.682Z,16.25
2023-04-21T18:37:22.336Z,16.13
2023-04-21T18:40:25.079Z,15.98
2023-04-21T18:43:29.185Z,15.83
2023-04-21T18:46:31.753Z,15.72
2023-04-21T18:49:34.522Z,15.64
2023-04-21T18:52:37.120Z,15.53
2023-04-21T18:55:40.432Z,15.51
2023-04-21T18:58:44.661Z,15.40
2023-04-21T19:01:47.623Z,15.33
2023-04-21T19:04:50.339Z,15.42
2023-04-21T19:07:53.088Z,15.34
2023-04-21T19:10:56.091Z,15.20
2023-04-21T19:14:00.145Z,15.13
2023-04-21T19:17:02.999Z,15.13
2023-04-21T19:20:06.806Z,15.02
2023-04-21T19:23:09.623Z,15.16
2023-04-21T19:26:13.308Z,15.15
2023-04-21T19:29:17.824Z,15.05
2023-04-21T19:32:20.840Z,15.00
2023-04-21T19:35:23.744Z,14.90
2023-04-21T19:38:26.924Z,14.92
2023-04-21T19:41:29.799Z,14.82
2023-04-21T19:44:33.881Z,14.82
2023-04-21T19:47:36.700Z,14.88
2023-04-21T19:50:39.596Z,14.89
2023-04-21T19:53:42.592Z,14.86
2023-04-21T19:56:45.514Z,14.94
2023-04-21T19:59:51.795Z,15.00
2023-04-21T20:02:54.742Z,15.10
2023-04-21T20:05:57.575Z,15.17
2023-04-21T20:09:00.181Z,15.22
2023-04-21T20:12:02.901Z,15.42
2023-04-21T20:15:08.416Z,15.64
2023-04-21T20:18:11.547Z,15.78
2023-04-21T20:21:14.212Z,15.74
2023-04-21T20:24:17.264Z,15.57
2023-04-21T20:27:19.926Z,15.52
2023-04-21T20:30:24.371Z,15.45
2023-04-21T20:33:28.075Z,15.40
2023-04-21T20:36:30.692Z,15.32
2023-04-21T20:39:33.671Z,15.22
2023-04-21T20:42:36.562Z,15.21
2023-04-21T20:45:41.293Z,15.38
2023-04-21T20:48:43.992Z,15.47
2023-04-21T20:51:46.676Z,15.41
2023-04-21T20:54:49.204Z,15.35
2023-04-21T20:57:51.785Z,15.32
2023-04-21T21:00:56.277Z,15.30
2023-04-21T21:04:01.003Z,15.28
2023-04-21T21:07:04.120Z,15.24
2023-04-21T21:10:08.106Z,15.23
2023-04-21T21:13:11.008Z,15.23
2023-04-21T21:16:14.996Z,15.25
2023-04-21T21:19:17.614Z,15.23
2023-04-21T21:22:20.181Z,15.12
2023-04-21T21:25:22.909Z,15.12
2023-04-21T21:28:26.224Z,15.06
2023-04-21T21:31:30.680Z,14.93
2023-04-21T21:34:33.272Z,15.06
2023-04-21T21:37:35.902Z,15.10
2023-04-21T21:40:38.559Z,15.07
2023-04-21T21:43:41.184Z,14.97
2023-04-21T21:46:45.531Z,14.91
2023-04-21T21:49:48.066Z,14.95
2023-04-21T21:52:50.785Z,15.06
2023-04-21T21:55:53.406Z,15.03
2023-04-21T21:58:55.976Z,14.96
2023-04-21T22:01:59.844Z,14.86
2023-04-21T22:05:04.440Z,14.82
2023-04-21T22:08:07.259Z,14.91
2023-04-21T22:11:09.862Z,15.01
2023-04-21T22:14:22.697Z,15.01
2023-04-21T22:17:27.711Z,14.95
2023-04-21T22:20:30.205Z,14.88
2023-04-21T22:23:33.124Z,14.83
2023-04-21T22:26:36.245Z,14.77
2023-04-21T22:29:39.042Z,14.72
2023-04-21T22:32:43.258Z,14.69
2023-04-21T22:35:45.944Z,14.61
2023-04-21T22:38:48.929Z,14.53
2023-04-21T22:41:53.140Z,14.51
2023-04-21T22:44:55.821Z,14.48
2023-04-21T22:47:59.819Z,14.51
2023-04-21T22:51:02.429Z,14.43
2023-04-21T22:54:05.134Z,14.27
2023-04-21T22:57:07.923Z,14.28
2023-04-21T23:00:11.805Z,14.25
2023-04-21T23:03:16.033Z,14.23
2023-04-21T23:06:18.860Z,14.21
2023-04-21T23:09:21.386Z,14.16
2023-04-21T23:12:24.019Z,14.16
2023-04-21T23:15:26.848Z,14.15
2023-04-21T23:18:30.875Z,14.19
2023-04-21T23:21:33.520Z,14.25
2023-04-21T23:24:36.028Z,14.15
2023-04-21T23:27:39.721Z,14.08
2023-04-21T23:30:42.266Z,14.00
2023-04-21T23:33:46.169Z,13.92
2023-04-21T23:36:48.735Z,13.81
2023-04-21T23:39:51.433Z,13.79
2023-04-21T23:42:53.998Z,13.73
2023-04-21T23:45:56.619Z,13.67
2023-04-21T23:49:00.576Z,13.60
2023-04-21T23:52:03.196Z,13.54
2023-04-21T23:55:08.192Z,13.47
2023-04-21T23:58:10.764Z,13.46
